Time;durP1;ratioP1;P1;durP2;ratioP2;P2;SDS_P1;SDS_P2;PMS_P1;PMS_P2;Temp;Humidity;BMP_temperature;BMP_pressure;BME280_temperature;BME280_humidity;BME280_pressure;Samples;Min_cycle;Max_cycle;Signal;HPM_P1;HPM_P2
2023/04/28 00:01:13;;;;;;;5.00;3.03;;;7.50;99.90;;;;;;4209526;28;20556;-81
2023/04/28 00:03:15;;;;;;;6.97;2.87;;;7.50;99.90;;;;;;4210541;28;20491;-80
2023/04/28 00:05:17;;;;;;;7.40;2.90;;;7.50;99.90;;;;;;4205156;28;20583;-79
2023/04/28 00:07:19;;;;;;;7.70;3.23;;;7.40;99.90;;;;;;4209920;28;20467;-80
2023/04/28 00:09:21;;;;;;;7.67;3.40;;;7.40;99.90;;;;;;4209087;28;20523;-80
2023/04/28 00:11:24;;;;;;;5.33;3.17;;;7.40;99.90;;;;;;4215076;28;21214;-80
2023/04/28 00:13:27;;;;;;;5.23;3.30;;;7.40;99.90;;;;;;4208076;28;20467;-79
2023/04/28 00:15:29;;;;;;;5.23;2.87;;;7.30;99.90;;;;;;4218114;28;20555;-79
2023/04/28 00:17:30;;;;;;;7.43;2.90;;;7.30;99.90;;;;;;4212605;28;20601;-79
2023/04/28 00:19:33;;;;;;;5.60;3.17;;;7.30;99.90;;;;;;4215964;28;20447;-79
2023/04/28 00:21:35;;;;;;;5.10;3.03;;;7.30;99.90;;;;;;4214382;28;20478;-79
2023/04/28 00:23:37;;;;;;;6.17;3.27;;;7.20;99.90;;;;;;4214507;28;20494;-79
2023/04/28 00:25:39;;;;;;;4.73;3.13;;;7.20;99.90;;;;;;4212323;28;20549;-79
2023/04/28 00:27:42;;;;;;;5.63;3.00;;;7.20;99.90;;;;;;4214180;28;20523;-79
2023/04/28 00:29:44;;;;;;;4.87;3.03;;;7.60;99.90;;;;;;4207682;28;20456;-79
2023/04/28 00:31:46;;;;;;;5.80;3.40;;;7.20;99.90;;;;;;4205209;28;20575;-79
2023/04/28 00:33:48;;;;;;;6.10;3.53;;;7.10;99.90;;;;;;4207377;28;20494;-79
2023/04/28 00:35:58;;;;;;;9.03;3.50;;;7.10;99.90;;;;;;4213948;28;20485;-79
2023/04/28 00:38:00;;;;;;;5.90;3.17;;;7.10;99.90;;;;;;4209938;28;20468;-80
2023/04/28 00:40:02;;;;;;;6.30;3.07;;;7.10;99.90;;;;;;4212523;28;20995;-78
2023/04/28 00:42:04;;;;;;;5.50;3.20;;;7.00;99.90;;;;;;4217305;28;20489;-81
2023/04/28 00:44:07;;;;;;;5.97;3.00;;;7.00;99.90;;;;;;4213758;28;20531;-80
2023/04/28 00:46:10;;;;;;;6.67;3.50;;;7.00;99.90;;;;;;4219741;28;20470;-81
2023/04/28 00:48:13;;;;;;;7.73;3.43;;;7.40;99.90;;;;;;4218279;28;20466;-79
2023/04/28 00:50:17;;;;;;;5.63;2.80;;;6.90;99.90;;;;;;4216637;28;20536;-80
2023/04/28 00:52:19;;;;;;;6.20;3.87;;;7.00;99.90;;;;;;4223514;28;20470;-80
2023/04/28 00:54:21;;;;;;;8.30;3.60;;;6.90;99.90;;;;;;4227885;28;20556;-81
2023/04/28 00:56:23;;;;;;;6.67;3.43;;;6.80;99.90;;;;;;4226545;28;20548;-80
2023/04/28 00:58:25;;;;;;;9.57;3.70;;;6.80;99.90;;;;;;4222823;28;20470;-79
2023/04/28 01:00:29;;;;;;;6.23;3.20;;;6.80;99.90;;;;;;4216897;28;20871;-79
2023/04/28 01:02:31;;;;;;;6.37;3.47;;;6.80;99.90;;;;;;4211841;28;20502;-80
2023/04/28 01:04:34;;;;;;;7.90;3.40;;;6.80;99.90;;;;;;4211950;28;20569;-79
2023/04/28 01:06:38;;;;;;;6.97;3.53;;;6.80;99.90;;;;;;4214161;28;20442;-80
2023/04/28 01:08:41;;;;;;;7.33;3.33;;;7.00;99.90;;;;;;4218460;28;20471;-82
2023/04/28 01:10:44;;;;;;;8.83;3.40;;;6.70;99.90;;;;;;4211895;28;20491;-81
2023/04/28 01:12:46;;;;;;;7.43;3.50;;;6.70;99.90;;;;;;4216283;28;20541;-79
2023/04/28 01:14:49;;;;;;;4.87;2.93;;;6.70;99.90;;;;;;4211880;28;20983;-79
2023/04/28 01:16:53;;;;;;;6.50;3.30;;;6.70;99.90;;;;;;4219352;28;20903;-80
2023/04/28 01:18:55;;;;;;;7.67;3.27;;;6.60;99.90;;;;;;4210191;28;20450;-81
2023/04/28 01:20:57;;;;;;;5.57;3.40;;;6.60;99.90;;;;;;4216258;28;20454;-80
2023/04/28 01:22:59;;;;;;;6.43;3.00;;;6.60;99.90;;;;;;4224047;28;20461;-81
2023/04/28 01:25:03;;;;;;;6.17;3.23;;;6.60;99.90;;;;;;4215639;28;20906;-81
2023/04/28 01:27:05;;;;;;;9.57;3.67;;;6.60;99.90;;;;;;4224051;28;20458;-79
2023/04/28 01:29:07;;;;;;;5.83;3.50;;;6.60;99.90;;;;;;4221820;28;20455;-79
2023/04/28 01:31:09;;;;;;;8.03;3.40;;;6.50;99.90;;;;;;4226108;28;20474;-79
2023/04/28 01:33:11;;;;;;;5.67;3.60;;;6.50;99.90;;;;;;4209282;28;20458;-79
2023/04/28 01:35:13;;;;;;;7.43;3.33;;;6.50;99.90;;;;;;4215103;28;20524;-80
2023/04/28 01:37:15;;;;;;;5.93;3.27;;;6.50;99.90;;;;;;4214305;28;20458;-80
2023/04/28 01:39:17;;;;;;;7.43;3.87;;;6.50;99.90;;;;;;4217219;28;20523;-79
2023/04/28 01:41:21;;;;;;;6.60;3.77;;;6.50;99.90;;;;;;4215530;28;20523;-80
2023/04/28 01:43:23;;;;;;;6.83;3.57;;;6.50;99.90;;;;;;4216928;28;20462;-80
2023/04/28 01:45:25;;;;;;;8.13;4.07;;;6.50;99.90;;;;;;4214366;28;20494;-79
2023/04/28 01:47:27;;;;;;;6.70;3.80;;;6.50;99.90;;;;;;4214551;28;20503;-79
2023/04/28 01:49:29;;;;;;;6.90;3.97;;;6.50;99.90;;;;;;4218831;28;20475;-81
2023/04/28 01:51:31;;;;;;;6.73;3.83;;;6.50;99.90;;;;;;4215874;28;20494;-79
2023/04/28 01:53:33;;;;;;;7.53;4.17;;;6.50;99.90;;;;;;4218680;28;20462;-79
2023/04/28 01:55:37;;;;;;;7.73;4.17;;;6.50;99.90;;;;;;4202760;28;20527;-79
2023/04/28 01:57:41;;;;;;;10.07;4.20;;;6.50;99.90;;;;;;4208827;28;20497;-79
2023/04/28 01:59:43;;;;;;;7.83;3.80;;;6.50;99.90;;;;;;4214354;28;20458;-80
2023/04/28 02:01:45;;;;;;;6.63;3.63;;;6.50;99.90;;;;;;4207058;28;20479;-80
2023/04/28 02:03:47;;;;;;;7.70;4.00;;;6.50;99.90;;;;;;4211098;28;20430;-80
2023/04/28 02:05:50;;;;;;;6.13;3.60;;;6.50;99.90;;;;;;4211055;28;20454;-80
2023/04/28 02:07:52;;;;;;;9.37;4.07;;;6.50;99.90;;;;;;4209997;28;20830;-79
2023/04/28 02:09:54;;;;;;;9.13;4.47;;;6.50;99.90;;;;;;4208514;28;21131;-79
2023/04/28 02:11:55;;;;;;;7.97;4.10;;;6.50;99.90;;;;;;4210365;28;20469;-79
2023/04/28 02:13:59;;;;;;;9.07;4.10;;;6.50;99.90;;;;;;4205877;28;20494;-80
2023/04/28 02:16:01;;;;;;;8.37;4.47;;;6.50;99.90;;;;;;4206307;28;20524;-81
2023/04/28 02:18:03;;;;;;;8.23;4.40;;;6.40;99.90;;;;;;4207292;28;20466;-80
2023/04/28 02:20:06;;;;;;;9.17;4.80;;;6.40;99.90;;;;;;4212899;28;20557;-80
2023/04/28 02:22:08;;;;;;;10.20;4.40;;;6.40;99.90;;;;;;4211723;28;20499;-79
2023/04/28 02:24:10;;;;;;;6.60;4.00;;;6.40;99.90;;;;;;4213383;28;20545;-79
2023/04/28 02:26:12;;;;;;;9.47;4.20;;;6.40;99.90;;;;;;4213966;28;20453;-80
2023/04/28 02:28:14;;;;;;;7.60;4.33;;;6.50;99.90;;;;;;4209761;28;20455;-80
2023/04/28 02:30:17;;;;;;;9.37;4.23;;;6.40;99.90;;;;;;4214215;28;20446;-79
2023/04/28 02:32:20;;;;;;;8.23;4.60;;;6.40;99.90;;;;;;4204697;28;20899;-80
2023/04/28 02:34:21;;;;;;;6.90;4.37;;;6.40;99.90;;;;;;4214771;28;20515;-80
2023/04/28 02:36:23;;;;;;;6.40;4.23;;;6.40;99.90;;;;;;4209670;28;20496;-80
2023/04/28 02:38:25;;;;;;;11.57;4.93;;;6.50;99.90;;;;;;4221983;28;20525;-78
2023/04/28 02:40:27;;;;;;;8.33;4.50;;;6.40;99.90;;;;;;4218960;28;20458;-80
2023/04/28 02:42:29;;;;;;;8.33;4.53;;;6.40;99.90;;;;;;4216181;28;21051;-79
2023/04/28 02:44:31;;;;;;;8.67;5.23;;;6.40;99.90;;;;;;4211739;28;20469;-79
2023/04/28 02:46:35;;;;;;;9.43;4.97;;;6.40;99.90;;;;;;4205089;28;21250;-79
2023/04/28 02:48:36;;;;;;;8.73;5.10;;;6.40;99.90;;;;;;4211530;28;20527;-79
2023/04/28 02:50:38;;;;;;;8.07;4.60;;;6.40;99.90;;;;;;4210584;28;20505;-79
2023/04/28 02:52:40;;;;;;;7.40;4.53;;;6.40;99.90;;;;;;4216873;28;20486;-79
2023/04/28 02:54:42;;;;;;;8.23;4.63;;;6.40;99.90;;;;;;4207254;28;20514;-81
2023/04/28 02:56:44;;;;;;;9.93;4.80;;;6.40;99.90;;;;;;4210232;28;20505;-80
2023/04/28 02:58:46;;;;;;;8.53;4.83;;;6.40;99.90;;;;;;4210538;28;20496;-79
2023/04/28 03:00:49;;;;;;;10.20;5.27;;;6.40;99.90;;;;;;4207735;28;20505;-79
2023/04/28 03:02:53;;;;;;;9.30;5.00;;;6.40;99.90;;;;;;4213215;28;20954;-79
2023/04/28 03:04:55;;;;;;;10.63;5.73;;;6.40;99.90;;;;;;4212524;28;20964;-80
2023/04/28 03:06:57;;;;;;;9.87;4.97;;;6.40;99.90;;;;;;4215055;28;20466;-81
2023/04/28 03:08:59;;;;;;;8.13;4.57;;;6.40;99.90;;;;;;4216372;28;20475;-79
2023/04/28 03:11:01;;;;;;;8.30;5.20;;;6.40;99.90;;;;;;4216522;28;20492;-79
2023/04/28 03:13:03;;;;;;;9.17;4.70;;;6.20;99.90;;;;;;4208167;28;20970;-79
2023/04/28 03:15:07;;;;;;;8.57;4.90;;;6.40;99.90;;;;;;4204525;28;20492;-80
2023/04/28 03:17:09;;;;;;;8.93;5.30;;;6.40;99.90;;;;;;4211469;28;21136;-79
2023/04/28 03:19:12;;;;;;;9.83;5.27;;;6.50;99.90;;;;;;4206763;28;21019;-79
2023/04/28 03:21:14;;;;;;;9.07;5.20;;;6.40;99.90;;;;;;4216616;28;20457;-79
2023/04/28 03:23:16;;;;;;;11.27;5.67;;;6.50;99.90;;;;;;4211909;28;20842;-79
2023/04/28 03:25:18;;;;;;;10.43;5.47;;;6.50;99.90;;;;;;4210542;28;20466;-79
2023/04/28 03:27:20;;;;;;;10.83;5.23;;;6.60;99.90;;;;;;4204667;28;20549;-80
2023/04/28 03:29:23;;;;;;;7.83;5.13;;;6.50;99.90;;;;;;4211957;28;20557;-79
2023/04/28 03:31:25;;;;;;;8.67;5.00;;;6.50;99.90;;;;;;4221641;28;20492;-79
2023/04/28 03:33:27;;;;;;;9.30;5.10;;;6.50;99.90;;;;;;4205877;28;20570;-76
2023/04/28 03:35:30;;;;;;;9.30;5.20;;;6.50;99.90;;;;;;4211918;28;20999;-79
2023/04/28 03:37:32;;;;;;;11.10;5.30;;;6.50;99.90;;;;;;4219876;28;20983;-80
2023/04/28 03:39:34;;;;;;;10.07;5.43;;;6.50;99.90;;;;;;4212647;28;20508;-80
2023/04/28 03:41:36;;;;;;;8.20;5.20;;;6.50;99.90;;;;;;4217502;28;20478;-80
2023/04/28 03:43:38;;;;;;;12.30;6.67;;;6.50;99.90;;;;;;4217359;28;20538;-80
2023/04/28 03:45:41;;;;;;;13.03;6.60;;;6.50;99.90;;;;;;4206239;28;20487;-79
2023/04/28 03:47:42;;;;;;;11.00;5.97;;;6.50;99.90;;;;;;4210853;28;20448;-79
2023/04/28 03:49:44;;;;;;;11.67;6.07;;;6.50;99.90;;;;;;4209445;28;20481;-80
2023/04/28 03:51:50;;;;;;;11.43;5.83;;;6.50;99.90;;;;;;4212816;28;20549;-79
2023/04/28 03:53:53;;;;;;;11.20;6.13;;;6.50;99.90;;;;;;4199218;28;21017;-79
2023/04/28 03:55:55;;;;;;;10.40;6.00;;;6.50;99.90;;;;;;4211687;28;20481;-80
2023/04/28 03:57:57;;;;;;;9.93;5.53;;;6.50;99.90;;;;;;4211587;28;21293;-80
2023/04/28 03:59:59;;;;;;;13.43;6.37;;;6.50;99.90;;;;;;4210210;28;20493;-80
2023/04/28 04:02:04;;;;;;;10.80;6.40;;;6.50;99.90;;;;;;4209307;28;20484;-79
2023/04/28 04:04:06;;;;;;;12.23;6.50;;;6.40;99.90;;;;;;4217345;28;20560;-79
2023/04/28 04:06:08;;;;;;;11.47;6.00;;;6.40;99.90;;;;;;4211040;28;20462;-79
2023/04/28 04:08:12;;;;;;;10.00;5.87;;;6.40;99.90;;;;;;4209651;28;20527;-79
2023/04/28 04:10:14;;;;;;;7.57;5.70;;;6.40;99.90;;;;;;4215849;28;20454;-79
2023/04/28 04:12:16;;;;;;;11.07;6.17;;;6.40;99.90;;;;;;4217891;28;20561;-80
2023/04/28 04:14:18;;;;;;;10.23;6.60;;;6.40;99.90;;;;;;4217952;28;20544;-79
2023/04/28 04:16:21;;;;;;;9.93;6.30;;;6.40;99.90;;;;;;4210690;28;20923;-79
2023/04/28 04:18:23;;;;;;;9.23;6.03;;;6.40;99.90;;;;;;4210139;28;20463;-79
2023/04/28 04:20:25;;;;;;;10.80;5.60;;;6.40;99.90;;;;;;4208151;28;20967;-80
2023/04/28 04:22:27;;;;;;;9.90;6.17;;;6.40;99.90;;;;;;4213114;28;20495;-78
2023/04/28 04:24:30;;;;;;;11.50;5.83;;;6.40;99.90;;;;;;4211883;28;20554;-80
2023/04/28 04:26:32;;;;;;;10.77;6.00;;;6.40;99.90;;;;;;4210941;28;20462;-79
2023/04/28 04:28:34;;;;;;;10.67;6.23;;;6.40;99.90;;;;;;4213678;28;20469;-79
2023/04/28 04:30:36;;;;;;;10.50;5.77;;;6.50;99.90;;;;;;4222640;28;20458;-80
2023/04/28 04:32:38;;;;;;;9.00;5.43;;;6.50;99.90;;;;;;4219876;28;20524;-80
2023/04/28 04:34:40;;;;;;;13.10;6.47;;;6.50;99.90;;;;;;4222062;28;20471;-80
2023/04/28 04:36:42;;;;;;;11.73;5.50;;;6.50;99.90;;;;;;4222652;28;20561;-79
2023/04/28 04:38:44;;;;;;;9.37;5.27;;;6.50;99.90;;;;;;4221601;28;20492;-79
2023/04/28 04:40:47;;;;;;;10.87;5.67;;;6.50;99.90;;;;;;4222096;28;20442;-79
2023/04/28 04:42:49;;;;;;;11.87;5.67;;;6.70;99.90;;;;;;4216452;28;20463;-80
2023/04/28 04:44:51;;;;;;;9.00;5.70;;;6.60;99.90;;;;;;4222448;28;20463;-81
2023/04/28 04:46:53;;;;;;;13.47;6.23;;;6.50;99.90;;;;;;4217419;28;20955;-79
2023/04/28 04:48:55;;;;;;;11.23;5.77;;;6.60;99.90;;;;;;4218329;28;20550;-79
2023/04/28 04:50:57;;;;;;;9.73;5.60;;;6.60;99.90;;;;;;4211795;28;20828;-80
2023/04/28 04:52:59;;;;;;;15.50;6.43;;;6.60;99.90;;;;;;4206229;28;20437;-79
2023/04/28 04:55:01;;;;;;;12.67;7.00;;;6.60;99.90;;;;;;4211928;28;20484;-79
2023/04/28 04:57:05;;;;;;;13.43;6.83;;;6.60;99.90;;;;;;4206278;28;20486;-79
2023/04/28 04:59:07;;;;;;;10.83;6.00;;;6.90;99.90;;;;;;4209253;28;20503;-78
2023/04/28 05:01:09;;;;;;;10.07;6.07;;;6.70;99.90;;;;;;4206723;28;21000;-80
2023/04/28 05:03:12;;;;;;;11.47;6.23;;;6.60;99.90;;;;;;4207883;28;20599;-79
2023/04/28 05:05:14;;;;;;;10.10;5.73;;;6.70;99.90;;;;;;4208408;28;20494;-79
2023/04/28 05:07:16;;;;;;;11.67;6.00;;;6.70;99.90;;;;;;4206069;28;20889;-80
2023/04/28 05:09:18;;;;;;;10.37;5.43;;;6.80;99.90;;;;;;4211419;28;20508;-80
2023/04/28 05:11:20;;;;;;;13.53;7.13;;;6.80;99.90;;;;;;4209820;28;20503;-81
2023/04/28 05:13:23;;;;;;;10.63;6.77;;;6.90;99.90;;;;;;4214951;28;20486;-80
2023/04/28 05:15:25;;;;;;;10.53;5.83;;;6.90;99.90;;;;;;4213927;28;20521;-80
2023/04/28 05:17:27;;;;;;;12.50;6.43;;;7.00;99.90;;;;;;4213607;28;20498;-80
2023/04/28 05:19:29;;;;;;;12.73;6.30;;;7.00;99.90;;;;;;4212865;28;20527;-81
2023/04/28 05:21:31;;;;;;;9.77;6.07;;;7.00;99.90;;;;;;4211668;28;20482;-80
2023/04/28 05:23:33;;;;;;;11.50;6.50;;;7.10;99.90;;;;;;4213889;28;20490;-79
2023/04/28 05:25:35;;;;;;;10.17;5.63;;;7.10;99.90;;;;;;4212148;28;20477;-79
2023/04/28 05:27:39;;;;;;;9.90;5.87;;;7.20;99.90;;;;;;4211656;28;20515;-80
2023/04/28 05:29:42;;;;;;;10.27;5.70;;;7.20;99.90;;;;;;4208311;28;20467;-79
2023/04/28 05:31:44;;;;;;;9.73;5.47;;;7.30;99.90;;;;;;4208877;28;20511;-79
2023/04/28 05:33:46;;;;;;;10.57;5.63;;;7.30;99.90;;;;;;4215393;28;20831;-80
2023/04/28 05:35:49;;;;;;;11.17;6.53;;;7.40;99.90;;;;;;4207597;28;20597;-79
2023/04/28 05:37:51;;;;;;;9.73;6.07;;;7.40;99.90;;;;;;4214887;28;21143;-80
2023/04/28 05:39:53;;;;;;;11.33;5.83;;;7.50;99.90;;;;;;4213372;28;20470;-80
2023/04/28 05:41:57;;;;;;;9.23;5.80;;;7.50;99.90;;;;;;4216887;28;20571;-81
2023/04/28 05:43:59;;;;;;;11.03;6.00;;;7.60;99.90;;;;;;4217421;28;20516;-80
2023/04/28 05:46:03;;;;;;;12.70;6.87;;;7.60;99.90;;;;;;4214407;28;20469;-80
2023/04/28 05:48:05;;;;;;;10.83;5.70;;;7.70;99.90;;;;;;4214347;28;20226;-80
2023/04/28 05:50:08;;;;;;;11.60;6.03;;;7.70;99.90;;;;;;4217544;28;20457;-80
2023/04/28 05:52:10;;;;;;;8.87;5.97;;;7.80;99.90;;;;;;4219175;28;20525;-81
2023/04/28 05:54:12;;;;;;;10.83;6.33;;;7.90;99.90;;;;;;4224553;28;20284;-81
2023/04/28 05:56:15;;;;;;;11.40;6.47;;;8.10;99.90;;;;;;4219131;28;20471;-81
2023/04/28 05:58:17;;;;;;;11.13;5.60;;;8.00;99.90;;;;;;4215292;28;20206;-81
2023/04/28 06:00:20;;;;;;;10.23;5.80;;;8.00;99.90;;;;;;4219452;28;20456;-81
2023/04/28 06:02:23;;;;;;;9.20;5.67;;;8.10;99.90;;;;;;4211946;28;20275;-76
2023/04/28 06:04:25;;;;;;;9.47;6.27;;;8.10;99.90;;;;;;4212845;28;20211;-78
2023/04/28 06:06:27;;;;;;;8.67;6.03;;;8.30;99.90;;;;;;4214018;28;20209;-79
2023/04/28 06:08:29;;;;;;;11.40;5.83;;;8.30;99.90;;;;;;4213347;28;20205;-78
2023/04/28 06:10:31;;;;;;;10.10;5.67;;;8.40;99.90;;;;;;4213830;28;20213;-79
2023/04/28 06:12:33;;;;;;;9.73;5.10;;;8.50;99.90;;;;;;4212837;28;20244;-79
2023/04/28 06:14:36;;;;;;;11.90;6.40;;;8.50;99.90;;;;;;4206620;28;20228;-78
2023/04/28 06:16:38;;;;;;;10.80;5.80;;;8.50;99.90;;;;;;4211744;28;20260;-80
2023/04/28 06:18:42;;;;;;;11.13;5.50;;;8.60;99.90;;;;;;4213854;28;20206;-79
2023/04/28 06:20:44;;;;;;;13.07;5.80;;;8.60;99.90;;;;;;4213560;28;20706;-79
2023/04/28 06:22:45;;;;;;;11.43;6.03;;;8.60;99.90;;;;;;4213707;28;20291;-77
2023/04/28 06:24:47;;;;;;;11.70;5.40;;;8.70;99.90;;;;;;4211625;28;20210;-79
2023/04/28 06:26:49;;;;;;;8.60;4.93;;;8.80;99.90;;;;;;4203088;28;20640;-78
2023/04/28 06:28:51;;;;;;;12.83;5.80;;;8.80;99.90;;;;;;4219959;28;20211;-77
2023/04/28 06:30:53;;;;;;;7.90;5.30;;;8.90;99.90;;;;;;4211599;28;20694;-79
2023/04/28 06:32:56;;;;;;;11.60;5.87;;;8.90;99.90;;;;;;4206962;28;20228;-79
2023/04/28 06:34:59;;;;;;;12.47;6.47;;;9.00;99.90;;;;;;4214287;28;20618;-78
2023/04/28 06:37:02;;;;;;;16.20;5.60;;;9.10;99.90;;;;;;4213294;28;20279;-79
2023/04/28 06:39:04;;;;;;;12.00;5.20;;;9.10;99.90;;;;;;4213729;28;20699;-79
2023/04/28 06:41:06;;;;;;;11.50;5.50;;;9.20;99.90;;;;;;4208152;28;20221;-80
2023/04/28 06:43:08;;;;;;;8.23;5.10;;;9.30;99.90;;;;;;4213609;28;20656;-82
2023/04/28 06:45:10;;;;;;;9.17;5.10;;;9.40;99.90;;;;;;4212582;28;20680;-81
2023/04/28 06:47:12;;;;;;;9.47;5.17;;;9.40;99.90;;;;;;4208564;28;20216;-81
2023/04/28 06:49:14;;;;;;;10.53;5.03;;;9.50;99.90;;;;;;4209943;28;20215;-79
2023/04/28 06:51:18;;;;;;;8.77;4.83;;;9.60;99.90;;;;;;4209104;28;20288;-85
2023/04/28 06:53:20;;;;;;;8.80;5.43;;;9.70;99.90;;;;;;4206479;28;20226;-82
2023/04/28 06:55:22;;;;;;;11.03;5.67;;;9.70;99.90;;;;;;4215333;28;20634;-80
2023/04/28 06:57:24;;;;;;;11.50;5.70;;;9.90;99.90;;;;;;4214039;28;20281;-77
2023/04/28 06:59:26;;;;;;;11.67;5.17;;;9.90;99.90;;;;;;4208539;28;20235;-76
2023/04/28 07:01:28;;;;;;;9.80;4.97;;;10.00;99.90;;;;;;4209520;28;20260;-76
2023/04/28 07:03:30;;;;;;;11.23;5.67;;;10.10;99.90;;;;;;4212960;28;20310;-77
2023/04/28 07:05:33;;;;;;;9.33;4.70;;;10.20;99.90;;;;;;4212674;28;20709;-76
2023/04/28 07:07:38;;;;;;;8.80;5.07;;;10.30;99.90;;;;;;4212982;28;20210;-76
2023/04/28 07:09:40;;;;;;;9.50;5.43;;;10.40;99.90;;;;;;4215426;28;20273;-77
2023/04/28 07:11:42;;;;;;;9.23;5.13;;;10.50;99.90;;;;;;4215486;28;20836;-76
2023/04/28 07:13:45;;;;;;;12.13;6.03;;;10.50;99.90;;;;;;4212240;28;20303;-76
2023/04/28 07:15:46;;;;;;;11.57;5.83;;;10.60;99.90;;;;;;4212777;28;20758;-76
2023/04/28 07:17:48;;;;;;;9.67;5.40;;;10.70;99.90;;;;;;4209372;28;20220;-77
2023/04/28 07:19:51;;;;;;;9.77;5.30;;;10.70;99.90;;;;;;4208288;28;20218;-81
2023/04/28 07:21:52;;;;;;;6.33;4.50;;;10.80;99.90;;;;;;4205635;28;20313;-79
2023/04/28 07:23:56;;;;;;;12.80;5.40;;;10.80;99.90;;;;;;4211943;28;20243;-77
2023/04/28 07:25:58;;;;;;;10.13;5.50;;;10.90;99.90;;;;;;4213549;28;20215;-82
2023/04/28 07:28:03;;;;;;;7.83;4.70;;;10.90;99.90;;;;;;4213486;28;20215;-76
2023/04/28 07:30:08;;;;;;;12.90;5.73;;;11.00;99.90;;;;;;4213921;28;20240;-77
2023/04/28 07:32:10;;;;;;;10.77;4.93;;;11.10;99.90;;;;;;4206732;28;20229;-76
2023/04/28 07:34:12;;;;;;;6.57;4.10;;;11.10;99.90;;;;;;4208885;28;20328;-75
2023/04/28 07:36:14;;;;;;;11.03;4.63;;;11.20;99.90;;;;;;4210277;28;20295;-76
2023/04/28 07:38:17;;;;;;;8.13;4.20;;;11.30;99.90;;;;;;4210508;28;20664;-75
2023/04/28 07:40:21;;;;;;;9.10;4.77;;;11.30;99.90;;;;;;4211795;28;20213;-74
2023/04/28 07:42:22;;;;;;;7.30;4.60;;;11.40;99.90;;;;;;4215062;28;20699;-75
2023/04/28 07:44:24;;;;;;;8.93;5.07;;;11.50;99.90;;;;;;4214494;28;20205;-74
2023/04/28 07:46:27;;;;;;;9.67;4.73;;;11.60;99.90;;;;;;4215449;28;20292;-75
2023/04/28 07:48:29;;;;;;;8.77;5.27;;;11.60;99.90;;;;;;4214436;28;20247;-75
2023/04/28 07:50:31;;;;;;;8.30;5.17;;;11.70;99.90;;;;;;4212203;28;20311;-74
2023/04/28 07:52:35;;;;;;;10.40;4.37;;;11.80;99.90;;;;;;4203074;28;20319;-76
2023/04/28 07:54:37;;;;;;;10.33;5.33;;;11.90;99.90;;;;;;4214591;28;20208;-76
2023/04/28 07:56:40;;;;;;;7.87;4.10;;;12.00;99.90;;;;;;4209139;28;20311;-76
2023/04/28 07:58:42;;;;;;;9.30;4.60;;;12.10;99.90;;;;;;4215934;28;20208;-76
2023/04/28 08:00:44;;;;;;;8.83;4.43;;;12.10;99.90;;;;;;4204586;28;20206;-77
2023/04/28 08:02:46;;;;;;;8.33;4.00;;;12.30;99.90;;;;;;4217118;28;20232;-77
2023/04/28 08:04:48;;;;;;;9.63;4.33;;;12.40;99.90;;;;;;4212578;28;20880;-77
2023/04/28 08:06:50;;;;;;;7.83;4.10;;;12.50;99.90;;;;;;4210851;28;20240;-77
2023/04/28 08:08:52;;;;;;;8.50;4.37;;;12.60;99.90;;;;;;4211945;28;20206;-75
2023/04/28 08:10:54;;;;;;;7.63;4.17;;;12.70;99.90;;;;;;4212652;28;20855;-76
2023/04/28 08:12:57;;;;;;;8.13;4.07;;;12.80;99.90;;;;;;4214634;28;20300;-76
2023/04/28 08:14:59;;;;;;;8.63;4.57;;;12.90;99.90;;;;;;4215869;28;20236;-76
2023/04/28 08:17:01;;;;;;;7.27;4.00;;;13.00;99.90;;;;;;4211801;28;20250;-76
2023/04/28 08:19:03;;;;;;;8.20;4.10;;;13.10;99.90;;;;;;4217131;28;20214;-76
2023/04/28 08:21:05;;;;;;;9.70;5.43;;;13.10;99.90;;;;;;4207572;28;20217;-80
2023/04/28 08:23:07;;;;;;;8.97;4.43;;;13.20;99.90;;;;;;4210638;28;20218;-76
2023/04/28 08:25:10;;;;;;;11.33;4.47;;;13.20;99.90;;;;;;4214564;28;20686;-75
2023/04/28 08:27:12;;;;;;;9.40;4.33;;;13.30;99.90;;;;;;4215049;28;20198;-76
2023/04/28 08:29:15;;;;;;;9.20;4.43;;;13.30;99.90;;;;;;4203750;28;20379;-82
2023/04/28 08:31:17;;;;;;;6.73;4.03;;;13.30;99.90;;;;;;4205595;28;20226;-77
2023/04/28 08:33:19;;;;;;;8.20;4.03;;;13.40;99.90;;;;;;4214865;28;20642;-78
2023/04/28 08:35:21;;;;;;;11.77;4.47;;;13.40;99.90;;;;;;4211398;28;20251;-76
2023/04/28 08:37:23;;;;;;;11.43;4.50;;;13.50;99.90;;;;;;4213677;28;20256;-80
2023/04/28 08:39:26;;;;;;;7.57;3.97;;;13.50;99.90;;;;;;4216127;28;20611;-78
2023/04/28 08:41:28;;;;;;;8.03;3.80;;;13.60;99.90;;;;;;4208161;28;20594;-79
2023/04/28 08:43:32;;;;;;;9.77;4.27;;;13.60;99.90;;;;;;4211277;28;20206;-79
2023/04/28 08:45:41;;;;;;;8.87;4.10;;;13.60;99.90;;;;;;4208490;28;20690;-77
2023/04/28 08:47:46;;;;;;;9.30;4.17;;;13.60;99.90;;;;;;4218952;28;20213;-77
2023/04/28 08:49:49;;;;;;;6.97;3.97;;;13.60;99.90;;;;;;4207798;28;20232;-80
2023/04/28 08:51:57;;;;;;;8.67;3.83;;;13.60;99.90;;;;;;4219380;28;20233;-80
2023/04/28 08:54:03;;;;;;;7.67;4.27;;;13.70;99.90;;;;;;4210166;28;20210;-79
2023/04/28 08:56:07;;;;;;;10.33;4.67;;;13.70;99.90;;;;;;4210522;28;20211;-78
2023/04/28 08:58:09;;;;;;;6.83;4.20;;;13.60;99.90;;;;;;4212951;28;20589;-80
2023/04/28 09:00:12;;;;;;;8.73;4.53;;;13.60;99.90;;;;;;4211887;28;20289;-79
2023/04/28 09:02:15;;;;;;;7.17;4.10;;;13.50;99.90;;;;;;4207014;28;20238;-77
2023/04/28 09:04:20;;;;;;;9.07;3.80;;;13.50;99.90;;;;;;4209525;28;20284;-76
2023/04/28 09:06:22;;;;;;;11.13;4.83;;;13.50;99.90;;;;;;4209030;28;20292;-78
2023/04/28 09:08:24;;;;;;;10.13;4.40;;;13.40;99.90;;;;;;4208861;28;20210;-76
2023/04/28 09:10:26;;;;;;;7.50;4.27;;;13.40;99.90;;;;;;4204180;28;20909;-79
2023/04/28 09:12:37;;;;;;;7.37;4.20;;;13.40;99.90;;;;;;4216684;28;20221;-77
2023/04/28 09:14:39;;;;;;;7.73;4.07;;;13.40;99.90;;;;;;4210462;28;20682;-77
2023/04/28 09:16:41;;;;;;;10.30;3.77;;;13.40;99.90;;;;;;4209086;28;20652;-77
2023/04/28 09:18:56;;;;;;;7.10;3.90;;;13.40;99.90;;;;;;4203186;28;20224;-76
2023/04/28 09:21:06;;;;;;;10.60;4.00;;;13.40;99.90;;;;;;4202777;28;20211;-76
2023/04/28 09:23:16;;;;;;;9.37;4.47;;;13.40;99.90;;;;;;4210951;28;20243;-77
2023/04/28 09:25:20;;;;;;;10.00;4.63;;;13.40;99.90;;;;;;4208886;28;20265;-76
2023/04/28 09:27:27;;;;;;;11.20;5.20;;;13.30;99.90;;;;;;4214327;28;20241;-77
2023/04/28 09:29:29;;;;;;;9.17;4.83;;;13.30;99.90;;;;;;4212895;28;20682;-76
2023/04/28 09:31:34;;;;;;;9.70;4.57;;;13.20;99.90;;;;;;4211983;28;20321;-76
2023/04/28 09:33:35;;;;;;;10.07;5.40;;;13.20;99.90;;;;;;4209469;28;20950;-76
2023/04/28 09:35:44;;;;;;;9.37;5.20;;;13.10;99.90;;;;;;4209160;28;20218;-77
2023/04/28 09:37:46;;;;;;;15.13;5.07;;;13.20;99.90;;;;;;4207462;28;20728;-76
2023/04/28 09:39:52;;;;;;;11.97;5.33;;;13.20;99.90;;;;;;4209880;28;20242;-76
2023/04/28 09:41:54;;;;;;;10.57;5.40;;;13.20;99.90;;;;;;4203035;28;20755;-75
2023/04/28 09:44:10;;;;;;;8.57;5.17;;;13.10;99.90;;;;;;4213076;28;20304;-77
2023/04/28 09:46:12;;;;;;;9.77;5.57;;;13.10;99.90;;;;;;4208036;28;20308;-77
2023/04/28 09:48:14;;;;;;;13.63;5.40;;;13.00;99.90;;;;;;4210614;28;20661;-77
2023/04/28 09:50:17;;;;;;;10.77;5.60;;;12.90;99.90;;;;;;4212423;28;21024;-77
2023/04/28 09:52:20;;;;;;;8.10;4.70;;;12.90;99.90;;;;;;4205508;28;20361;-77
2023/04/28 09:54:24;;;;;;;13.17;5.67;;;12.90;99.90;;;;;;4208100;28;20225;-76
2023/04/28 09:56:27;;;;;;;8.83;5.77;;;12.90;99.90;;;;;;4213663;28;20663;-76
2023/04/28 09:58:31;;;;;;;9.37;5.80;;;12.90;99.90;;;;;;4209702;28;20339;-76
2023/04/28 10:00:34;;;;;;;10.13;5.70;;;13.00;99.90;;;;;;4209930;28;21096;-76
2023/04/28 10:02:37;;;;;;;8.77;5.30;;;13.10;99.90;;;;;;4207032;28;20752;-75
2023/04/28 10:04:40;;;;;;;13.23;6.53;;;13.10;99.90;;;;;;4209401;28;20212;-76
2023/04/28 10:06:44;;;;;;;9.90;6.10;;;13.10;99.90;;;;;;4207065;28;20298;-76
2023/04/28 10:08:51;;;;;;;12.30;6.10;;;13.10;99.90;;;;;;4206221;28;20219;-76
2023/04/28 10:10:53;;;;;;;12.43;5.80;;;13.10;99.90;;;;;;4211191;28;20259;-77
2023/04/28 10:12:56;;;;;;;13.77;6.53;;;13.10;99.90;;;;;;4211714;28;20320;-76
2023/04/28 10:14:59;;;;;;;9.00;5.23;;;13.00;99.90;;;;;;4205828;28;20216;-76
2023/04/28 10:17:02;;;;;;;14.70;6.50;;;13.00;99.90;;;;;;4209186;28;20707;-76
2023/04/28 10:19:05;;;;;;;11.23;5.90;;;12.90;99.90;;;;;;4209342;28;20309;-76
2023/04/28 10:21:08;;;;;;;8.67;5.53;;;12.90;99.90;;;;;;4205765;28;20209;-76
2023/04/28 10:23:38;;;;;;;11.03;6.10;;;12.90;99.90;;;;;;4202366;28;20210;-76
2023/04/28 10:25:43;;;;;;;12.37;5.70;;;12.90;99.90;;;;;;4197038;28;20267;-76
2023/04/28 10:27:46;;;;;;;10.80;5.53;;;12.90;99.90;;;;;;4213962;28;20220;-76
2023/04/28 10:29:48;;;;;;;11.13;6.23;;;13.00;99.90;;;;;;4211621;28;20218;-76
2023/04/28 10:32:15;;;;;;;12.73;6.40;;;13.10;99.90;;;;;;4206111;28;20231;-76
2023/04/28 10:34:24;;;;;;;12.80;6.10;;;13.10;99.90;;;;;;4206507;28;20237;-76
2023/04/28 10:36:47;;;;;;;11.97;6.27;;;13.20;99.90;;;;;;4208195;28;20224;-76
2023/04/28 10:39:11;;;;;;;7.77;5.70;;;13.20;99.90;;;;;;4206536;28;20220;-76
2023/04/28 10:41:35;;;;;;;11.57;6.33;;;13.30;99.90;;;;;;4212987;28;20227;-76
2023/04/28 10:43:38;;;;;;;11.23;6.17;;;13.30;99.90;;;;;;4209006;28;20233;-76